createdAt,value
2023-01-31T00:02:22.692Z,34.22
2023-01-31T00:06:50.892Z,26.15
2023-01-31T00:10:53.060Z,33.60
2023-01-31T00:14:54.936Z,28.20
2023-01-31T00:18:56.960Z,27.40
2023-01-31T00:22:58.899Z,32.58
2023-01-31T00:27:00.825Z,44.60
2023-01-31T00:31:02.680Z,30.73
2023-01-31T00:35:05.248Z,30.05
2023-01-31T00:39:08.149Z,35.60
2023-01-31T00:43:10.171Z,32.10
2023-01-31T00:47:12.052Z,29.10
2023-01-31T00:51:14.528Z,32.03
2023-01-31T00:55:16.624Z,28.08
2023-01-31T00:59:18.843Z,30.88
2023-01-31T01:03:20.862Z,24.83
2023-01-31T01:07:22.923Z,32.42
2023-01-31T01:11:31.137Z,31.45
2023-01-31T01:19:38.904Z,29.10
2023-01-31T01:23:41.577Z,21.90
2023-01-31T01:27:43.529Z,38.58
2023-01-31T01:31:46.708Z,23.73
2023-01-31T01:35:48.686Z,25.60
2023-01-31T01:39:52.310Z,23.77
2023-01-31T01:43:57.296Z,22.05
2023-01-31T01:48:03.713Z,24.75
2023-01-31T01:52:09.919Z,29.65
2023-01-31T01:56:21.813Z,29.08
2023-01-31T02:00:28.637Z,36.85
2023-01-31T02:04:38.802Z,22.15
2023-01-31T02:08:42.577Z,21.92
2023-01-31T02:12:46.342Z,27.02
2023-01-31T02:16:48.308Z,28.45
2023-01-31T02:21:27.465Z,23.85
2023-01-31T02:25:49.084Z,28.35
2023-01-31T02:30:38.293Z,27.67
2023-01-31T02:35:24.920Z,25.80
2023-01-31T02:39:46.708Z,17.73
2023-01-31T02:44:16.174Z,28.60
2023-01-31T02:48:33.485Z,26.30
2023-01-31T02:52:40.986Z,24.15
2023-01-31T02:56:47.270Z,28.13
2023-01-31T03:00:50.919Z,23.83
2023-01-31T03:04:53.222Z,35.08
2023-01-31T03:09:04.452Z,23.80
2023-01-31T03:13:28.089Z,25.80
2023-01-31T03:17:51.377Z,24.33
2023-01-31T03:22:00.511Z,38.50
2023-01-31T03:26:06.417Z,23.00
2023-01-31T03:30:14.005Z,29.00
2023-01-31T03:34:17.720Z,25.33
2023-01-31T03:38:35.099Z,21.75
2023-01-31T03:42:45.447Z,29.40
2023-01-31T03:46:55.356Z,25.52
2023-01-31T03:51:01.479Z,26.42
2023-01-31T03:55:46.571Z,25.55
2023-01-31T03:59:54.745Z,25.42
2023-01-31T04:08:02.152Z,25.27
2023-01-31T04:12:06.624Z,24.05
2023-01-31T04:16:08.776Z,30.90
2023-01-31T04:20:13.088Z,22.75
2023-01-31T04:24:15.054Z,20.42
2023-01-31T04:28:17.088Z,34.63
2023-01-31T04:32:19.090Z,38.70
2023-01-31T04:36:21.044Z,35.33
2023-01-31T04:40:23.192Z,24.70
2023-01-31T04:44:25.087Z,28.95
2023-01-31T04:48:28.986Z,21.30
2023-01-31T04:52:31.730Z,32.55
2023-01-31T04:56:34.019Z,26.33
2023-01-31T05:00:36.569Z,39.60
2023-01-31T05:04:38.609Z,28.38
2023-01-31T05:08:40.297Z,21.98
2023-01-31T05:12:42.233Z,26.42
2023-01-31T05:16:47.166Z,27.63
2023-01-31T05:20:50.178Z,26.63
2023-01-31T05:24:52.367Z,27.67
2023-01-31T05:28:54.382Z,29.98
2023-01-31T05:32:56.583Z,27.20
2023-01-31T05:36:59.374Z,27.83
2023-01-31T05:41:01.820Z,24.85
2023-01-31T05:45:04.423Z,39.45
2023-01-31T05:49:06.528Z,34.03
2023-01-31T05:53:09.431Z,32.05
2023-01-31T05:57:11.480Z,24.13
2023-01-31T06:01:13.397Z,22.52
2023-01-31T06:05:15.758Z,32.33
2023-01-31T06:09:17.677Z,23.63
2023-01-31T06:13:19.579Z,28.15
2023-01-31T06:17:24.058Z,36.33
2023-01-31T06:21:26.006Z,33.85
2023-01-31T06:25:28.025Z,27.63
2023-01-31T06:29:30.534Z,21.40
2023-01-31T06:33:44.739Z,20.50
2023-01-31T06:37:48.648Z,26.08
2023-01-31T06:41:50.636Z,27.13
2023-01-31T06:45:52.702Z,30.58
2023-01-31T06:49:54.526Z,26.63
2023-01-31T06:53:56.876Z,28.92
2023-01-31T06:57:59.000Z,27.75
2023-01-31T07:02:00.946Z,23.58
2023-01-31T07:06:03.884Z,28.30
2023-01-31T07:10:06.567Z,39.20
2023-01-31T07:14:08.634Z,18.00
2023-01-31T07:18:12.266Z,26.02
2023-01-31T07:22:14.329Z,32.50
2023-01-31T07:26:16.821Z,43.10
2023-01-31T07:30:19.150Z,34.53
2023-01-31T07:34:23.109Z,25.98
2023-01-31T07:38:25.129Z,27.75
2023-01-31T07:42:34.706Z,19.48
2023-01-31T07:46:42.146Z,24.65
2023-01-31T07:50:45.591Z,20.92
2023-01-31T07:54:47.648Z,23.00
2023-01-31T07:58:50.548Z,35.67
2023-01-31T08:03:11.009Z,26.52
2023-01-31T08:07:13.003Z,32.00
2023-01-31T08:11:15.212Z,28.42
2023-01-31T08:15:17.206Z,18.80
2023-01-31T08:19:19.204Z,18.85
2023-01-31T08:23:21.117Z,28.42
2023-01-31T08:27:23.120Z,18.98
2023-01-31T08:31:26.762Z,17.63
2023-01-31T08:35:29.297Z,33.38
2023-01-31T08:39:31.373Z,18.65
2023-01-31T08:43:42.268Z,22.45
2023-01-31T08:47:47.895Z,26.63
2023-01-31T08:51:49.871Z,20.77
2023-01-31T08:55:51.880Z,14.85
2023-01-31T08:59:53.900Z,22.80
2023-01-31T09:03:57.315Z,26.70
2023-01-31T09:07:59.480Z,19.23
2023-01-31T09:12:03.685Z,23.88
2023-01-31T09:16:11.364Z,14.82
2023-01-31T09:20:13.404Z,20.17
2023-01-31T09:24:15.463Z,17.30
2023-01-31T09:28:17.507Z,21.20
2023-01-31T09:32:21.263Z,25.77
2023-01-31T09:36:24.900Z,25.85
2023-01-31T09:40:32.490Z,19.38
2023-01-31T09:44:42.102Z,27.40
2023-01-31T09:48:48.082Z,16.25
2023-01-31T09:52:50.368Z,20.98
2023-01-31T09:57:01.373Z,19.92
2023-01-31T10:01:19.828Z,25.85
2023-01-31T10:05:39.660Z,23.98
2023-01-31T10:09:51.891Z,16.95
2023-01-31T10:13:58.606Z,18.33
2023-01-31T10:18:09.397Z,21.02
2023-01-31T10:22:19.303Z,20.08
2023-01-31T10:26:30.369Z,19.90
2023-01-31T10:30:51.944Z,21.60
2023-01-31T10:34:59.101Z,22.33
2023-01-31T10:39:07.570Z,22.85
2023-01-31T10:47:31.523Z,17.85
2023-01-31T10:51:52.807Z,16.23
2023-01-31T10:56:04.226Z,13.73
2023-01-31T11:00:07.309Z,10.02
2023-01-31T11:04:24.343Z,11.70
2023-01-31T11:08:53.428Z,21.08
2023-01-31T11:13:01.908Z,16.75
2023-01-31T11:17:14.814Z,14.52
2023-01-31T11:21:24.685Z,11.20
2023-01-31T11:25:28.756Z,23.45
2023-01-31T11:29:38.141Z,16.02
2023-01-31T11:33:45.188Z,17.98
2023-01-31T11:37:54.241Z,16.48
2023-01-31T11:41:56.341Z,18.05
2023-01-31T11:46:04.189Z,17.52
2023-01-31T11:50:07.414Z,17.02
2023-01-31T11:54:18.290Z,15.93
2023-01-31T11:58:32.246Z,15.82
2023-01-31T12:02:41.741Z,18.77
2023-01-31T12:06:56.673Z,19.60
2023-01-31T12:11:00.169Z,13.88
2023-01-31T12:15:14.980Z,16.98
2023-01-31T12:19:30.160Z,22.38
2023-01-31T12:23:50.568Z,16.45
2023-01-31T12:28:17.436Z,15.32
2023-01-31T12:32:53.486Z,21.40
2023-01-31T12:37:22.085Z,21.98
2023-01-31T12:41:39.482Z,18.63
2023-01-31T12:45:46.228Z,17.63
2023-01-31T12:49:57.667Z,18.00
2023-01-31T12:54:16.769Z,18.13
2023-01-31T13:03:00.021Z,23.55
2023-01-31T13:07:12.652Z,15.95
2023-01-31T13:11:26.789Z,26.25
2023-01-31T13:15:42.412Z,18.33
2023-01-31T13:19:53.655Z,18.67
2023-01-31T13:24:01.941Z,15.82
2023-01-31T13:28:32.245Z,15.10
2023-01-31T13:32:48.557Z,16.92
2023-01-31T13:37:02.105Z,17.90
2023-01-31T13:41:05.350Z,16.63
2023-01-31T13:45:11.167Z,20.83
2023-01-31T13:49:48.690Z,16.48
2023-01-31T13:53:56.245Z,14.18
2023-01-31T13:58:05.059Z,12.07
2023-01-31T14:02:18.243Z,18.33
2023-01-31T14:06:20.251Z,17.65
2023-01-31T14:10:29.105Z,19.33
2023-01-31T14:14:37.391Z,16.23
2023-01-31T14:18:44.637Z,18.02
2023-01-31T14:23:24.970Z,18.63
2023-01-31T14:27:42.898Z,13.10
2023-01-31T14:31:46.889Z,24.40
2023-01-31T14:36:19.506Z,17.98
2023-01-31T14:40:30.475Z,18.58
2023-01-31T14:44:51.859Z,14.23
2023-01-31T14:49:09.191Z,25.85
2023-01-31T14:53:41.400Z,22.05
2023-01-31T14:57:46.722Z,21.23
2023-01-31T15:01:49.220Z,27.30
2023-01-31T15:06:09.237Z,31.20
2023-01-31T15:10:49.901Z,37.55
2023-01-31T15:14:52.469Z,37.42
2023-01-31T15:19:01.309Z,34.22
2023-01-31T15:23:09.006Z,29.02
2023-01-31T15:27:19.477Z,34.67
2023-01-31T15:31:41.099Z,50.20
2023-01-31T15:35:53.258Z,45.60
2023-01-31T15:40:01.142Z,33.58
2023-01-31T15:44:22.692Z,32.38
2023-01-31T15:48:24.662Z,32.60
2023-01-31T15:52:28.474Z,41.22
2023-01-31T15:56:30.647Z,24.08
2023-01-31T16:00:35.619Z,24.77
2023-01-31T16:04:40.209Z,33.35
2023-01-31T16:08:42.195Z,38.75
2023-01-31T16:12:48.646Z,30.48
2023-01-31T16:16:55.804Z,34.97
2023-01-31T16:20:58.018Z,32.40
2023-01-31T16:25:02.617Z,30.73
2023-01-31T16:29:10.523Z,39.20
2023-01-31T16:33:23.170Z,33.03
2023-01-31T16:37:43.352Z,34.55
2023-01-31T16:41:52.114Z,36.60
2023-01-31T16:45:56.896Z,36.30
2023-01-31T16:50:42.397Z,50.03
2023-01-31T16:54:53.608Z,43.30
2023-01-31T16:58:59.317Z,41.53
2023-01-31T17:03:02.290Z,26.35
2023-01-31T17:07:06.578Z,39.25
2023-01-31T17:11:16.586Z,33.50
2023-01-31T17:15:26.023Z,39.03
2023-01-31T17:19:29.517Z,38.08
2023-01-31T17:23:31.812Z,28.48
2023-01-31T17:27:34.114Z,33.55
2023-01-31T17:31:36.251Z,30.30
2023-01-31T17:35:40.816Z,30.75
2023-01-31T17:39:43.412Z,29.98
2023-01-31T17:43:45.667Z,32.47
2023-01-31T17:47:48.039Z,26.42
2023-01-31T17:51:50.241Z,29.30
2023-01-31T17:55:52.444Z,24.73
2023-01-31T17:59:54.508Z,36.97
2023-01-31T18:03:58.320Z,32.25
2023-01-31T18:08:00.896Z,33.05
2023-01-31T18:12:03.065Z,28.90
2023-01-31T18:16:13.309Z,44.40
2023-01-31T18:20:17.335Z,30.40
2023-01-31T18:24:20.259Z,29.58
2023-01-31T18:28:22.703Z,39.08
2023-01-31T18:32:24.813Z,33.70
2023-01-31T18:36:27.073Z,40.35
2023-01-31T18:40:29.794Z,37.30
2023-01-31T18:44:32.640Z,27.42
2023-01-31T18:48:37.321Z,44.65
2023-01-31T18:52:43.840Z,35.17
2023-01-31T18:56:45.955Z,33.75
2023-01-31T19:00:48.179Z,32.15
2023-01-31T19:04:50.401Z,53.40
2023-01-31T19:08:54.918Z,35.78
2023-01-31T19:12:57.049Z,48.10
2023-01-31T19:16:59.623Z,43.90
2023-01-31T19:21:01.677Z,40.72
2023-01-31T19:25:05.502Z,44.42
2023-01-31T19:29:09.774Z,48.20
2023-01-31T19:33:12.012Z,45.63
2023-01-31T19:37:14.046Z,37.55
2023-01-31T19:41:22.140Z,39.60
2023-01-31T19:45:24.409Z,57.97
2023-01-31T19:49:26.655Z,48.03
2023-01-31T19:53:29.691Z,66.28
2023-01-31T19:57:31.863Z,58.08
2023-01-31T20:01:33.999Z,46.05
2023-01-31T20:05:36.218Z,49.10
2023-01-31T20:09:38.143Z,41.78
2023-01-31T20:13:40.241Z,47.83
2023-01-31T20:17:42.376Z,47.45
2023-01-31T20:21:45.634Z,38.05
2023-01-31T20:25:50.164Z,43.25
2023-01-31T20:29:52.454Z,32.85
2023-01-31T20:33:54.877Z,30.10
2023-01-31T20:37:57.009Z,29.00
2023-01-31T20:41:59.043Z,39.30
2023-01-31T20:46:03.071Z,41.50
2023-01-31T20:50:05.510Z,44.15
2023-01-31T20:54:07.563Z,39.13
2023-01-31T20:58:09.540Z,33.05
2023-01-31T21:02:11.911Z,40.47
2023-01-31T21:06:13.924Z,40.53
2023-01-31T21:10:16.127Z,37.00
2023-01-31T21:14:19.154Z,33.53
2023-01-31T21:18:22.625Z,32.88
2023-01-31T21:22:24.585Z,35.03
2023-01-31T21:26:27.271Z,33.15
2023-01-31T21:30:29.672Z,31.40
2023-01-31T21:34:31.601Z,31.10
2023-01-31T21:38:33.584Z,40.83
2023-01-31T21:42:35.733Z,33.33
2023-01-31T21:46:37.891Z,38.63
2023-01-31T21:50:39.853Z,49.47
2023-01-31T21:54:41.842Z,41.60
2023-01-31T21:58:44.549Z,49.20
2023-01-31T22:02:51.463Z,88.90
2023-01-31T22:06:53.917Z,44.67
2023-01-31T22:11:03.796Z,46.40
2023-01-31T22:15:05.880Z,34.05
2023-01-31T22:19:09.505Z,42.15
2023-01-31T22:23:11.482Z,45.28
2023-01-31T22:27:13.641Z,41.28
2023-01-31T22:31:15.982Z,40.70
2023-01-31T22:35:17.959Z,38.20
2023-01-31T22:39:19.953Z,42.08
2023-01-31T22:43:21.894Z,44.17
2023-01-31T22:47:24.932Z,43.60
2023-01-31T22:51:28.695Z,34.88
2023-01-31T22:55:30.777Z,65.68
2023-01-31T22:59:32.858Z,36.63
2023-01-31T23:03:34.997Z,38.05
2023-01-31T23:07:36.678Z,46.95
2023-01-31T23:11:38.928Z,32.03
2023-01-31T23:15:40.964Z,34.55
2023-01-31T23:19:43.027Z,38.47
2023-01-31T23:23:46.029Z,48.78
2023-01-31T23:27:48.525Z,40.35
2023-01-31T23:31:50.521Z,43.92
2023-01-31T23:35:52.898Z,51.20
2023-01-31T23:39:54.876Z,49.13
2023-01-31T23:43:56.826Z,43.35
2023-01-31T23:47:58.858Z,41.60
2023-01-31T23:52:00.806Z,45.08
2023-01-31T23:56:02.748Z,37.95
